sensor_id;sensor_type;location;lat;lon;timestamp;P1;durP1;ratioP1;P2;durP2;ratioP2
8254;SDS011;4167;48.162;11.542;2022-08-21T00:01:37;103.30;;;35.87;;
8254;SDS011;4167;48.162;11.542;2022-08-21T00:04:05;151.83;;;37.47;;
8254;SDS011;4167;48.162;11.542;2022-08-21T00:06:33;97.97;;;35.73;;
8254;SDS011;4167;48.162;11.542;2022-08-21T00:09:00;98.30;;;35.83;;
8254;SDS011;4167;48.162;11.542;2022-08-21T00:11:26;113.67;;;36.40;;
8254;SDS011;4167;48.162;11.542;2022-08-21T00:13:53;90.37;;;35.30;;
8254;SDS011;4167;48.162;11.542;2022-08-21T00:16:20;77.33;;;34.87;;
8254;SDS011;4167;48.162;11.542;2022-08-21T00:18:46;77.83;;;34.83;;
8254;SDS011;4167;48.162;11.542;2022-08-21T00:21:14;82.70;;;35.30;;
8254;SDS011;4167;48.162;11.542;2022-08-21T00:23:41;90.47;;;35.37;;
8254;SDS011;4167;48.162;11.542;2022-08-21T00:26:08;62.63;;;33.77;;
8254;SDS011;4167;48.162;11.542;2022-08-21T00:28:35;81.37;;;35.03;;
8254;SDS011;4167;48.162;11.542;2022-08-21T00:31:01;100.63;;;34.93;;
8254;SDS011;4167;48.162;11.542;2022-08-21T00:33:29;91.83;;;35.80;;
8254;SDS011;4167;48.162;11.542;2022-08-21T00:35:56;81.70;;;35.07;;
8254;SDS011;4167;48.162;11.542;2022-08-21T00:38:24;74.63;;;35.07;;
8254;SDS011;4167;48.162;11.542;2022-08-21T00:40:51;101.87;;;35.97;;
8254;SDS011;4167;48.162;11.542;2022-08-21T00:43:20;83.73;;;35.00;;
8254;SDS011;4167;48.162;11.542;2022-08-21T00:45:48;68.40;;;34.23;;
8254;SDS011;4167;48.162;11.542;2022-08-21T00:48:15;89.40;;;35.53;;
8254;SDS011;4167;48.162;11.542;2022-08-21T00:50:44;82.07;;;37.27;;
8254;SDS011;4167;48.162;11.542;2022-08-21T00:53:12;92.20;;;35.30;;
8254;SDS011;4167;48.162;11.542;2022-08-21T00:55:41;101.10;;;35.47;;
8254;SDS011;4167;48.162;11.542;2022-08-21T00:58:08;74.87;;;33.60;;
8254;SDS011;4167;48.162;11.542;2022-08-21T01:00:37;61.70;;;33.40;;
8254;SDS011;4167;48.162;11.542;2022-08-21T01:03:06;117.70;;;35.80;;
8254;SDS011;4167;48.162;11.542;2022-08-21T01:05:34;110.20;;;35.67;;
8254;SDS011;4167;48.162;11.542;2022-08-21T01:08:02;48.47;;;33.60;;
8254;SDS011;4167;48.162;11.542;2022-08-21T01:10:29;108.77;;;35.27;;
8254;SDS011;4167;48.162;11.542;2022-08-21T01:12:57;90.40;;;34.40;;
8254;SDS011;4167;48.162;11.542;2022-08-21T01:15:24;137.47;;;36.60;;
8254;SDS011;4167;48.162;11.542;2022-08-21T01:17:53;86.93;;;34.13;;
8254;SDS011;4167;48.162;11.542;2022-08-21T01:20:20;85.23;;;34.67;;
8254;SDS011;4167;48.162;11.542;2022-08-21T01:22:48;89.27;;;34.67;;
8254;SDS011;4167;48.162;11.542;2022-08-21T01:25:15;128.17;;;36.33;;
8254;SDS011;4167;48.162;11.542;2022-08-21T01:27:44;115.67;;;35.10;;
8254;SDS011;4167;48.162;11.542;2022-08-21T01:30:13;73.00;;;34.27;;
8254;SDS011;4167;48.162;11.542;2022-08-21T01:32:43;76.47;;;33.43;;
8254;SDS011;4167;48.162;11.542;2022-08-21T01:35:10;93.90;;;35.73;;
8254;SDS011;4167;48.162;11.542;2022-08-21T01:37:37;72.30;;;33.90;;
8254;SDS011;4167;48.162;11.542;2022-08-21T01:40:05;74.77;;;34.33;;
8254;SDS011;4167;48.162;11.542;2022-08-21T01:42:33;120.77;;;35.90;;
8254;SDS011;4167;48.162;11.542;2022-08-21T01:44:59;93.63;;;34.33;;
8254;SDS011;4167;48.162;11.542;2022-08-21T01:47:26;84.73;;;33.97;;
8254;SDS011;4167;48.162;11.542;2022-08-21T01:49:53;37.70;;;33.00;;
8254;SDS011;4167;48.162;11.542;2022-08-21T01:52:19;151.83;;;37.23;;
8254;SDS011;4167;48.162;11.542;2022-08-21T01:54:46;90.27;;;34.73;;
8254;SDS011;4167;48.162;11.542;2022-08-21T01:57:14;74.13;;;34.37;;
8254;SDS011;4167;48.162;11.542;2022-08-21T01:59:41;87.63;;;34.50;;
8254;SDS011;4167;48.162;11.542;2022-08-21T02:02:07;89.07;;;34.43;;
8254;SDS011;4167;48.162;11.542;2022-08-21T02:04:34;125.03;;;36.13;;
8254;SDS011;4167;48.162;11.542;2022-08-21T02:07:01;53.37;;;32.40;;
8254;SDS011;4167;48.162;11.542;2022-08-21T02:09:28;68.37;;;32.80;;
8254;SDS011;4167;48.162;11.542;2022-08-21T02:11:55;84.07;;;34.07;;
8254;SDS011;4167;48.162;11.542;2022-08-21T02:14:23;92.00;;;34.27;;
8254;SDS011;4167;48.162;11.542;2022-08-21T02:16:49;78.37;;;34.00;;
8254;SDS011;4167;48.162;11.542;2022-08-21T02:19:16;121.67;;;35.67;;
8254;SDS011;4167;48.162;11.542;2022-08-21T02:21:43;60.27;;;33.40;;
8254;SDS011;4167;48.162;11.542;2022-08-21T02:24:10;78.50;;;33.67;;
8254;SDS011;4167;48.162;11.542;2022-08-21T02:26:37;70.50;;;33.50;;
8254;SDS011;4167;48.162;11.542;2022-08-21T02:29:04;61.80;;;33.23;;
8254;SDS011;4167;48.162;11.542;2022-08-21T02:31:32;128.00;;;35.53;;
8254;SDS011;4167;48.162;11.542;2022-08-21T02:33:59;102.13;;;34.97;;
8254;SDS011;4167;48.162;11.542;2022-08-21T02:36:25;101.07;;;34.83;;
8254;SDS011;4167;48.162;11.542;2022-08-21T02:38:52;53.97;;;32.73;;
8254;SDS011;4167;48.162;11.542;2022-08-21T02:41:19;94.97;;;34.70;;
8254;SDS011;4167;48.162;11.542;2022-08-21T02:43:46;85.93;;;34.80;;
8254;SDS011;4167;48.162;11.542;2022-08-21T02:46:14;92.10;;;34.63;;
8254;SDS011;4167;48.162;11.542;2022-08-21T02:48:43;74.27;;;33.70;;
8254;SDS011;4167;48.162;11.542;2022-08-21T02:51:11;94.00;;;34.40;;
8254;SDS011;4167;48.162;11.542;2022-08-21T02:53:39;76.70;;;33.47;;
8254;SDS011;4167;48.162;11.542;2022-08-21T02:56:07;66.93;;;34.17;;
8254;SDS011;4167;48.162;11.542;2022-08-21T02:58:36;72.40;;;33.40;;
8254;SDS011;4167;48.162;11.542;2022-08-21T03:01:03;76.27;;;33.73;;
8254;SDS011;4167;48.162;11.542;2022-08-21T03:03:30;77.77;;;33.57;;
8254;SDS011;4167;48.162;11.542;2022-08-21T03:06:00;88.67;;;34.73;;
8254;SDS011;4167;48.162;11.542;2022-08-21T03:08:27;98.43;;;34.53;;
8254;SDS011;4167;48.162;11.542;2022-08-21T03:10:54;87.27;;;33.90;;
8254;SDS011;4167;48.162;11.542;2022-08-21T03:13:21;74.07;;;33.63;;
8254;SDS011;4167;48.162;11.542;2022-08-21T03:15:48;131.40;;;35.93;;
8254;SDS011;4167;48.162;11.542;2022-08-21T03:18:15;109.33;;;35.00;;
8254;SDS011;4167;48.162;11.542;2022-08-21T03:20:42;91.93;;;34.63;;
8254;SDS011;4167;48.162;11.542;2022-08-21T03:23:11;65.57;;;33.47;;
8254;SDS011;4167;48.162;11.542;2022-08-21T03:25:38;98.93;;;34.27;;
8254;SDS011;4167;48.162;11.542;2022-08-21T03:28:08;75.77;;;33.63;;
8254;SDS011;4167;48.162;11.542;2022-08-21T03:30:35;104.63;;;34.43;;
8254;SDS011;4167;48.162;11.542;2022-08-21T03:33:02;91.57;;;34.63;;
8254;SDS011;4167;48.162;11.542;2022-08-21T03:35:29;98.77;;;34.73;;
8254;SDS011;4167;48.162;11.542;2022-08-21T03:37:56;97.83;;;34.00;;
8254;SDS011;4167;48.162;11.542;2022-08-21T03:40:24;97.37;;;34.93;;
8254;SDS011;4167;48.162;11.542;2022-08-21T03:42:50;89.53;;;34.60;;
8254;SDS011;4167;48.162;11.542;2022-08-21T03:45:17;81.77;;;34.53;;
8254;SDS011;4167;48.162;11.542;2022-08-21T03:47:52;96.53;;;34.17;;
8254;SDS011;4167;48.162;11.542;2022-08-21T03:50:20;130.77;;;35.77;;
8254;SDS011;4167;48.162;11.542;2022-08-21T03:52:47;108.23;;;35.10;;
8254;SDS011;4167;48.162;11.542;2022-08-21T03:55:14;85.60;;;34.77;;
8254;SDS011;4167;48.162;11.542;2022-08-21T03:57:42;122.63;;;36.00;;
8254;SDS011;4167;48.162;11.542;2022-08-21T04:00:09;98.03;;;35.73;;
8254;SDS011;4167;48.162;11.542;2022-08-21T04:02:38;92.17;;;34.07;;
8254;SDS011;4167;48.162;11.542;2022-08-21T04:05:05;89.50;;;34.20;;
8254;SDS011;4167;48.162;11.542;2022-08-21T04:07:32;64.87;;;33.50;;
8254;SDS011;4167;48.162;11.542;2022-08-21T04:09:58;119.17;;;35.07;;
8254;SDS011;4167;48.162;11.542;2022-08-21T04:12:25;153.77;;;36.60;;
8254;SDS011;4167;48.162;11.542;2022-08-21T04:14:53;89.97;;;34.13;;
8254;SDS011;4167;48.162;11.542;2022-08-21T04:17:19;69.57;;;33.33;;
8254;SDS011;4167;48.162;11.542;2022-08-21T04:19:46;97.33;;;35.07;;
8254;SDS011;4167;48.162;11.542;2022-08-21T04:22:12;113.70;;;35.50;;
8254;SDS011;4167;48.162;11.542;2022-08-21T04:24:39;126.40;;;36.23;;
8254;SDS011;4167;48.162;11.542;2022-08-21T04:27:05;103.40;;;35.53;;
8254;SDS011;4167;48.162;11.542;2022-08-21T04:29:32;97.40;;;35.13;;
8254;SDS011;4167;48.162;11.542;2022-08-21T04:32:00;123.23;;;35.80;;
8254;SDS011;4167;48.162;11.542;2022-08-21T04:34:26;76.23;;;35.10;;
8254;SDS011;4167;48.162;11.542;2022-08-21T04:36:52;119.43;;;35.47;;
8254;SDS011;4167;48.162;11.542;2022-08-21T04:39:19;129.33;;;36.20;;
8254;SDS011;4167;48.162;11.542;2022-08-21T04:41:45;80.00;;;34.30;;
8254;SDS011;4167;48.162;11.542;2022-08-21T04:44:12;53.80;;;33.17;;
8254;SDS011;4167;48.162;11.542;2022-08-21T04:46:38;84.03;;;34.27;;
8254;SDS011;4167;48.162;11.542;2022-08-21T04:49:06;113.47;;;35.70;;
8254;SDS011;4167;48.162;11.542;2022-08-21T04:51:34;92.60;;;35.07;;
8254;SDS011;4167;48.162;11.542;2022-08-21T04:54:05;90.67;;;35.00;;
8254;SDS011;4167;48.162;11.542;2022-08-21T04:56:34;106.20;;;36.23;;
8254;SDS011;4167;48.162;11.542;2022-08-21T04:59:04;84.70;;;34.87;;
8254;SDS011;4167;48.162;11.542;2022-08-21T05:01:33;120.77;;;37.00;;
8254;SDS011;4167;48.162;11.542;2022-08-21T05:04:02;88.90;;;35.67;;
8254;SDS011;4167;48.162;11.542;2022-08-21T05:06:33;94.43;;;37.50;;
8254;SDS011;4167;48.162;11.542;2022-08-21T05:09:02;85.30;;;37.47;;
8254;SDS011;4167;48.162;11.542;2022-08-21T05:11:30;113.83;;;38.33;;
8254;SDS011;4167;48.162;11.542;2022-08-21T05:13:56;115.33;;;38.17;;
8254;SDS011;4167;48.162;11.542;2022-08-21T05:16:23;100.70;;;37.17;;
8254;SDS011;4167;48.162;11.542;2022-08-21T05:18:50;148.23;;;39.23;;
8254;SDS011;4167;48.162;11.542;2022-08-21T05:21:16;93.77;;;37.33;;
8254;SDS011;4167;48.162;11.542;2022-08-21T05:23:44;135.77;;;39.10;;
8254;SDS011;4167;48.162;11.542;2022-08-21T05:26:10;66.83;;;36.20;;
8254;SDS011;4167;48.162;11.542;2022-08-21T05:28:37;84.27;;;36.97;;
8254;SDS011;4167;48.162;11.542;2022-08-21T05:31:03;85.73;;;36.67;;
8254;SDS011;4167;48.162;11.542;2022-08-21T05:33:30;87.18;;;37.10;;
8254;SDS011;4167;48.162;11.542;2022-08-21T05:35:57;79.20;;;37.40;;
8254;SDS011;4167;48.162;11.542;2022-08-21T05:38:24;68.93;;;36.15;;
8254;SDS011;4167;48.162;11.542;2022-08-21T05:40:53;99.97;;;37.72;;
8254;SDS011;4167;48.162;11.542;2022-08-21T05:43:20;85.18;;;37.10;;
8254;SDS011;4167;48.162;11.542;2022-08-21T05:45:47;72.27;;;35.93;;
8254;SDS011;4167;48.162;11.542;2022-08-21T05:48:14;101.50;;;37.17;;
8254;SDS011;4167;48.162;11.542;2022-08-21T05:50:42;98.43;;;37.07;;
8254;SDS011;4167;48.162;11.542;2022-08-21T05:53:11;84.13;;;35.90;;
8254;SDS011;4167;48.162;11.542;2022-08-21T05:55:38;115.00;;;37.57;;
8254;SDS011;4167;48.162;11.542;2022-08-21T05:58:07;98.63;;;36.92;;
8254;SDS011;4167;48.162;11.542;2022-08-21T06:00:34;95.20;;;37.45;;
8254;SDS011;4167;48.162;11.542;2022-08-21T06:03:00;106.03;;;37.70;;
8254;SDS011;4167;48.162;11.542;2022-08-21T06:05:27;126.95;;;38.40;;
8254;SDS011;4167;48.162;11.542;2022-08-21T06:07:53;92.07;;;37.55;;
8254;SDS011;4167;48.162;11.542;2022-08-21T06:10:20;99.78;;;38.28;;
8254;SDS011;4167;48.162;11.542;2022-08-21T06:12:46;78.30;;;36.67;;
8254;SDS011;4167;48.162;11.542;2022-08-21T06:15:14;101.85;;;37.97;;
8254;SDS011;4167;48.162;11.542;2022-08-21T06:17:40;123.38;;;37.92;;
8254;SDS011;4167;48.162;11.542;2022-08-21T06:20:07;118.57;;;38.40;;
8254;SDS011;4167;48.162;11.542;2022-08-21T06:22:34;115.72;;;38.58;;
8254;SDS011;4167;48.162;11.542;2022-08-21T06:25:01;84.10;;;37.88;;
8254;SDS011;4167;48.162;11.542;2022-08-21T06:27:27;148.88;;;40.65;;
8254;SDS011;4167;48.162;11.542;2022-08-21T06:29:54;143.63;;;40.35;;
8254;SDS011;4167;48.162;11.542;2022-08-21T06:32:23;160.48;;;40.28;;
8254;SDS011;4167;48.162;11.542;2022-08-21T06:34:50;92.88;;;38.38;;
8254;SDS011;4167;48.162;11.542;2022-08-21T06:37:16;104.80;;;37.92;;
8254;SDS011;4167;48.162;11.542;2022-08-21T06:39:43;125.10;;;39.22;;
8254;SDS011;4167;48.162;11.542;2022-08-21T06:42:12;136.18;;;39.22;;
8254;SDS011;4167;48.162;11.542;2022-08-21T06:44:39;196.05;;;41.58;;
8254;SDS011;4167;48.162;11.542;2022-08-21T06:47:06;99.43;;;36.88;;
8254;SDS011;4167;48.162;11.542;2022-08-21T06:49:34;103.72;;;37.55;;
8254;SDS011;4167;48.162;11.542;2022-08-21T06:52:00;100.97;;;36.42;;
8254;SDS011;4167;48.162;11.542;2022-08-21T06:54:27;77.93;;;35.47;;
8254;SDS011;4167;48.162;11.542;2022-08-21T06:56:53;169.60;;;40.15;;
8254;SDS011;4167;48.162;11.542;2022-08-21T06:59:20;66.13;;;34.80;;
8254;SDS011;4167;48.162;11.542;2022-08-21T07:01:46;100.63;;;37.03;;
8254;SDS011;4167;48.162;11.542;2022-08-21T07:04:13;107.88;;;37.22;;
8254;SDS011;4167;48.162;11.542;2022-08-21T07:06:41;108.95;;;36.63;;
8254;SDS011;4167;48.162;11.542;2022-08-21T07:09:07;93.82;;;36.53;;
8254;SDS011;4167;48.162;11.542;2022-08-21T07:11:35;125.07;;;37.78;;
8254;SDS011;4167;48.162;11.542;2022-08-21T07:14:01;85.28;;;35.65;;
8254;SDS011;4167;48.162;11.542;2022-08-21T07:16:28;139.45;;;38.05;;
8254;SDS011;4167;48.162;11.542;2022-08-21T07:18:55;145.00;;;38.60;;
8254;SDS011;4167;48.162;11.542;2022-08-21T07:21:22;85.55;;;36.05;;
8254;SDS011;4167;48.162;11.542;2022-08-21T07:23:50;99.32;;;36.92;;
8254;SDS011;4167;48.162;11.542;2022-08-21T07:26:19;92.80;;;36.65;;
8254;SDS011;4167;48.162;11.542;2022-08-21T07:28:47;264.95;;;43.90;;
8254;SDS011;4167;48.162;11.542;2022-08-21T07:31:14;61.65;;;35.38;;
8254;SDS011;4167;48.162;11.542;2022-08-21T07:33:42;103.45;;;36.47;;
8254;SDS011;4167;48.162;11.542;2022-08-21T07:36:09;101.78;;;36.42;;
8254;SDS011;4167;48.162;11.542;2022-08-21T07:38:36;135.77;;;37.92;;
8254;SDS011;4167;48.162;11.542;2022-08-21T07:41:06;88.75;;;36.10;;
8254;SDS011;4167;48.162;11.542;2022-08-21T07:43:37;105.53;;;36.58;;
8254;SDS011;4167;48.162;11.542;2022-08-21T07:46:03;93.47;;;36.13;;
8254;SDS011;4167;48.162;11.542;2022-08-21T07:48:30;74.57;;;35.88;;
8254;SDS011;4167;48.162;11.542;2022-08-21T07:50:57;75.22;;;35.47;;
8254;SDS011;4167;48.162;11.542;2022-08-21T07:53:24;81.70;;;35.60;;
8254;SDS011;4167;48.162;11.542;2022-08-21T07:55:50;145.60;;;38.80;;
8254;SDS011;4167;48.162;11.542;2022-08-21T07:58:18;211.82;;;42.35;;
8254;SDS011;4167;48.162;11.542;2022-08-21T08:00:44;262.50;;;44.13;;
8254;SDS011;4167;48.162;11.542;2022-08-21T08:03:11;156.88;;;39.03;;
8254;SDS011;4167;48.162;11.542;2022-08-21T08:05:37;123.75;;;37.83;;
8254;SDS011;4167;48.162;11.542;2022-08-21T08:08:04;275.77;;;44.95;;
8254;SDS011;4167;48.162;11.542;2022-08-21T08:10:31;172.23;;;41.00;;
8254;SDS011;4167;48.162;11.542;2022-08-21T08:12:58;106.32;;;37.67;;
8254;SDS011;4167;48.162;11.542;2022-08-21T08:15:26;186.30;;;41.58;;
8254;SDS011;4167;48.162;11.542;2022-08-21T08:17:53;130.00;;;38.75;;
8254;SDS011;4167;48.162;11.542;2022-08-21T08:20:20;151.43;;;40.92;;
8254;SDS011;4167;48.162;11.542;2022-08-21T08:22:48;127.90;;;39.42;;
8254;SDS011;4167;48.162;11.542;2022-08-21T08:25:15;135.60;;;41.05;;
8254;SDS011;4167;48.162;11.542;2022-08-21T08:27:42;231.82;;;44.55;;
8254;SDS011;4167;48.162;11.542;2022-08-21T08:30:09;125.35;;;41.22;;
8254;SDS011;4167;48.162;11.542;2022-08-21T08:32:38;142.68;;;40.45;;
8254;SDS011;4167;48.162;11.542;2022-08-21T08:35:06;72.00;;;37.33;;
8254;SDS011;4167;48.162;11.542;2022-08-21T08:37:33;147.07;;;40.50;;
8254;SDS011;4167;48.162;11.542;2022-08-21T08:40:03;87.20;;;37.95;;
8254;SDS011;4167;48.162;11.542;2022-08-21T08:42:31;144.05;;;40.72;;
8254;SDS011;4167;48.162;11.542;2022-08-21T08:45:00;191.45;;;41.47;;
8254;SDS011;4167;48.162;11.542;2022-08-21T08:47:29;172.43;;;40.22;;
8254;SDS011;4167;48.162;11.542;2022-08-21T08:50:00;159.75;;;40.92;;
8254;SDS011;4167;48.162;11.542;2022-08-21T08:52:30;152.88;;;40.03;;
8254;SDS011;4167;48.162;11.542;2022-08-21T08:55:00;118.28;;;39.05;;
8254;SDS011;4167;48.162;11.542;2022-08-21T08:57:28;152.60;;;40.10;;
8254;SDS011;4167;48.162;11.542;2022-08-21T08:59:56;131.15;;;38.83;;
8254;SDS011;4167;48.162;11.542;2022-08-21T09:02:25;189.95;;;42.20;;
8254;SDS011;4167;48.162;11.542;2022-08-21T09:04:52;142.32;;;39.05;;
8254;SDS011;4167;48.162;11.542;2022-08-21T09:07:22;174.93;;;40.67;;
8254;SDS011;4167;48.162;11.542;2022-08-21T09:09:58;86.75;;;37.05;;
8254;SDS011;4167;48.162;11.542;2022-08-21T09:12:33;121.93;;;38.53;;
8254;SDS011;4167;48.162;11.542;2022-08-21T09:15:06;97.55;;;37.80;;
8254;SDS011;4167;48.162;11.542;2022-08-21T09:17:40;273.15;;;45.25;;
8254;SDS011;4167;48.162;11.542;2022-08-21T09:20:19;413.10;;;50.08;;
8254;SDS011;4167;48.162;11.542;2022-08-21T09:22:59;156.73;;;39.72;;
8254;SDS011;4167;48.162;11.542;2022-08-21T09:25:32;103.25;;;38.40;;
8254;SDS011;4167;48.162;11.542;2022-08-21T09:28:02;208.13;;;41.88;;
8254;SDS011;4167;48.162;11.542;2022-08-21T09:30:30;176.90;;;40.75;;
8254;SDS011;4167;48.162;11.542;2022-08-21T09:32:57;125.32;;;38.65;;
8254;SDS011;4167;48.162;11.542;2022-08-21T09:35:24;212.75;;;42.72;;
8254;SDS011;4167;48.162;11.542;2022-08-21T09:37:52;250.50;;;43.65;;
8254;SDS011;4167;48.162;11.542;2022-08-21T09:40:32;158.70;;;40.88;;
8254;SDS011;4167;48.162;11.542;2022-08-21T09:43:00;99.80;;;37.92;;
8254;SDS011;4167;48.162;11.542;2022-08-21T09:45:28;303.58;;;45.88;;
8254;SDS011;4167;48.162;11.542;2022-08-21T09:47:55;241.50;;;43.88;;
8254;SDS011;4167;48.162;11.542;2022-08-21T09:50:23;78.38;;;37.33;;
8254;SDS011;4167;48.162;11.542;2022-08-21T09:52:53;122.05;;;39.45;;
8254;SDS011;4167;48.162;11.542;2022-08-21T09:55:30;78.47;;;36.95;;
8254;SDS011;4167;48.162;11.542;2022-08-21T09:58:17;93.35;;;37.95;;
8254;SDS011;4167;48.162;11.542;2022-08-21T10:00:44;128.48;;;39.10;;
8254;SDS011;4167;48.162;11.542;2022-08-21T10:03:12;153.90;;;40.42;;
8254;SDS011;4167;48.162;11.542;2022-08-21T10:05:49;167.02;;;41.05;;
8254;SDS011;4167;48.162;11.542;2022-08-21T10:08:19;267.60;;;44.35;;
8254;SDS011;4167;48.162;11.542;2022-08-21T10:10:50;144.32;;;39.92;;
8254;SDS011;4167;48.162;11.542;2022-08-21T10:13:21;154.07;;;39.92;;
8254;SDS011;4167;48.162;11.542;2022-08-21T10:15:54;98.00;;;38.38;;
8254;SDS011;4167;48.162;11.542;2022-08-21T10:18:42;223.00;;;43.45;;
8254;SDS011;4167;48.162;11.542;2022-08-21T10:21:27;136.15;;;39.65;;
8254;SDS011;4167;48.162;11.542;2022-08-21T10:24:00;73.38;;;37.40;;
8254;SDS011;4167;48.162;11.542;2022-08-21T10:26:35;121.80;;;39.28;;
8254;SDS011;4167;48.162;11.542;2022-08-21T10:29:14;133.90;;;40.03;;
8254;SDS011;4167;48.162;11.542;2022-08-21T10:31:48;168.68;;;41.15;;
8254;SDS011;4167;48.162;11.542;2022-08-21T10:34:22;65.72;;;37.33;;
8254;SDS011;4167;48.162;11.542;2022-08-21T10:37:03;98.30;;;38.40;;
8254;SDS011;4167;48.162;11.542;2022-08-21T10:39:40;176.07;;;41.92;;
8254;SDS011;4167;48.162;11.542;2022-08-21T10:42:16;118.65;;;38.85;;
8254;SDS011;4167;48.162;11.542;2022-08-21T10:44:49;144.63;;;40.42;;
8254;SDS011;4167;48.162;11.542;2022-08-21T10:47:23;185.45;;;41.33;;
8254;SDS011;4167;48.162;11.542;2022-08-21T10:49:57;113.35;;;38.22;;
8254;SDS011;4167;48.162;11.542;2022-08-21T10:52:35;157.75;;;39.78;;
8254;SDS011;4167;48.162;11.542;2022-08-21T10:55:14;146.80;;;40.33;;
8254;SDS011;4167;48.162;11.542;2022-08-21T10:57:44;117.88;;;39.03;;
8254;SDS011;4167;48.162;11.542;2022-08-21T11:00:15;176.00;;;41.22;;
8254;SDS011;4167;48.162;11.542;2022-08-21T11:02:44;119.47;;;38.75;;
8254;SDS011;4167;48.162;11.542;2022-08-21T11:05:14;118.38;;;39.10;;
8254;SDS011;4167;48.162;11.542;2022-08-21T11:07:43;120.20;;;38.70;;
8254;SDS011;4167;48.162;11.542;2022-08-21T11:10:15;201.43;;;41.10;;
8254;SDS011;4167;48.162;11.542;2022-08-21T11:12:46;120.80;;;38.92;;
8254;SDS011;4167;48.162;11.542;2022-08-21T11:15:19;172.40;;;40.92;;
8254;SDS011;4167;48.162;11.542;2022-08-21T11:17:52;123.97;;;38.47;;
8254;SDS011;4167;48.162;11.542;2022-08-21T11:20:28;138.88;;;39.63;;
8254;SDS011;4167;48.162;11.542;2022-08-21T11:22:58;130.27;;;38.53;;
8254;SDS011;4167;48.162;11.542;2022-08-21T11:25:30;104.50;;;37.55;;
8254;SDS011;4167;48.162;11.542;2022-08-21T11:28:01;79.60;;;36.55;;
8254;SDS011;4167;48.162;11.542;2022-08-21T11:30:31;110.97;;;37.92;;
8254;SDS011;4167;48.162;11.542;2022-08-21T11:33:09;89.43;;;37.33;;
8254;SDS011;4167;48.162;11.542;2022-08-21T11:35:48;118.40;;;38.45;;
8254;SDS011;4167;48.162;11.542;2022-08-21T11:38:22;149.98;;;39.30;;
8254;SDS011;4167;48.162;11.542;2022-08-21T11:40:57;105.18;;;37.78;;
8254;SDS011;4167;48.162;11.542;2022-08-21T11:43:34;128.10;;;38.10;;
8254;SDS011;4167;48.162;11.542;2022-08-21T11:46:08;93.85;;;37.03;;
8254;SDS011;4167;48.162;11.542;2022-08-21T11:48:40;197.13;;;40.33;;
8254;SDS011;4167;48.162;11.542;2022-08-21T11:51:15;112.47;;;37.58;;
8254;SDS011;4167;48.162;11.542;2022-08-21T11:53:46;122.57;;;38.00;;
8254;SDS011;4167;48.162;11.542;2022-08-21T11:56:17;139.38;;;38.25;;
8254;SDS011;4167;48.162;11.542;2022-08-21T11:58:49;152.63;;;38.97;;
8254;SDS011;4167;48.162;11.542;2022-08-21T12:01:19;80.72;;;36.40;;
8254;SDS011;4167;48.162;11.542;2022-08-21T12:03:51;118.93;;;37.70;;
8254;SDS011;4167;48.162;11.542;2022-08-21T12:06:27;93.35;;;37.25;;
8254;SDS011;4167;48.162;11.542;2022-08-21T12:08:59;104.78;;;37.58;;
8254;SDS011;4167;48.162;11.542;2022-08-21T12:11:26;102.63;;;37.60;;
8254;SDS011;4167;48.162;11.542;2022-08-21T12:13:56;84.47;;;37.00;;
8254;SDS011;4167;48.162;11.542;2022-08-21T12:16:31;112.07;;;38.28;;
8254;SDS011;4167;48.162;11.542;2022-08-21T12:19:02;105.90;;;37.53;;
8254;SDS011;4167;48.162;11.542;2022-08-21T12:21:30;104.75;;;37.80;;
8254;SDS011;4167;48.162;11.542;2022-08-21T12:24:01;99.18;;;37.65;;
8254;SDS011;4167;48.162;11.542;2022-08-21T12:26:31;128.27;;;38.30;;
8254;SDS011;4167;48.162;11.542;2022-08-21T12:31:50;118.35;;;38.22;;
8254;SDS011;4167;48.162;11.542;2022-08-21T12:34:20;56.58;;;35.47;;
8254;SDS011;4167;48.162;11.542;2022-08-21T12:36:49;151.65;;;40.00;;
8254;SDS011;4167;48.162;11.542;2022-08-21T12:39:22;79.38;;;36.65;;
8254;SDS011;4167;48.162;11.542;2022-08-21T12:41:51;194.85;;;41.10;;
8254;SDS011;4167;48.162;11.542;2022-08-21T12:44:24;106.53;;;37.75;;
8254;SDS011;4167;48.162;11.542;2022-08-21T12:46:55;109.47;;;37.30;;
8254;SDS011;4167;48.162;11.542;2022-08-21T12:49:25;104.53;;;37.53;;
8254;SDS011;4167;48.162;11.542;2022-08-21T12:51:56;123.13;;;38.22;;
8254;SDS011;4167;48.162;11.542;2022-08-21T12:54:27;92.85;;;36.72;;
8254;SDS011;4167;48.162;11.542;2022-08-21T12:56:56;116.40;;;37.90;;
8254;SDS011;4167;48.162;11.542;2022-08-21T12:59:24;150.00;;;39.05;;
8254;SDS011;4167;48.162;11.542;2022-08-21T13:01:51;118.78;;;37.72;;
8254;SDS011;4167;48.162;11.542;2022-08-21T13:04:21;118.72;;;38.03;;
8254;SDS011;4167;48.162;11.542;2022-08-21T13:06:49;126.15;;;38.55;;
8254;SDS011;4167;48.162;11.542;2022-08-21T13:09:19;105.60;;;37.35;;
8254;SDS011;4167;48.162;11.542;2022-08-21T13:11:49;119.85;;;38.25;;
8254;SDS011;4167;48.162;11.542;2022-08-21T13:14:17;94.05;;;37.58;;
8254;SDS011;4167;48.162;11.542;2022-08-21T13:16:53;208.10;;;41.92;;
8254;SDS011;4167;48.162;11.542;2022-08-21T13:19:21;91.97;;;37.38;;
8254;SDS011;4167;48.162;11.542;2022-08-21T13:21:48;298.98;;;45.42;;
8254;SDS011;4167;48.162;11.542;2022-08-21T13:24:16;126.55;;;39.15;;
8254;SDS011;4167;48.162;11.542;2022-08-21T13:26:45;106.38;;;37.60;;
8254;SDS011;4167;48.162;11.542;2022-08-21T13:29:14;101.97;;;37.88;;
8254;SDS011;4167;48.162;11.542;2022-08-21T13:31:45;201.93;;;41.90;;
8254;SDS011;4167;48.162;11.542;2022-08-21T13:34:14;157.50;;;39.97;;
8254;SDS011;4167;48.162;11.542;2022-08-21T13:36:42;151.07;;;39.33;;
8254;SDS011;4167;48.162;11.542;2022-08-21T13:39:11;105.88;;;37.97;;
8254;SDS011;4167;48.162;11.542;2022-08-21T13:41:40;90.15;;;37.33;;
8254;SDS011;4167;48.162;11.542;2022-08-21T13:44:14;74.18;;;36.55;;
8254;SDS011;4167;48.162;11.542;2022-08-21T13:46:42;112.47;;;38.25;;
8254;SDS011;4167;48.162;11.542;2022-08-21T13:49:09;202.98;;;41.13;;
8254;SDS011;4167;48.162;11.542;2022-08-21T13:51:37;93.32;;;37.05;;
8254;SDS011;4167;48.162;11.542;2022-08-21T13:54:13;101.65;;;37.42;;
8254;SDS011;4167;48.162;11.542;2022-08-21T13:56:41;125.38;;;38.78;;
8254;SDS011;4167;48.162;11.542;2022-08-21T13:59:11;127.00;;;38.83;;
8254;SDS011;4167;48.162;11.542;2022-08-21T14:01:39;143.77;;;39.35;;
8254;SDS011;4167;48.162;11.542;2022-08-21T14:04:16;125.40;;;38.63;;
8254;SDS011;4167;48.162;11.542;2022-08-21T14:06:47;99.45;;;37.50;;
8254;SDS011;4167;48.162;11.542;2022-08-21T14:09:19;120.05;;;38.13;;
8254;SDS011;4167;48.162;11.542;2022-08-21T14:11:49;123.13;;;38.47;;
8254;SDS011;4167;48.162;11.542;2022-08-21T14:14:17;70.03;;;36.22;;
8254;SDS011;4167;48.162;11.542;2022-08-21T14:16:52;124.68;;;38.17;;
8254;SDS011;4167;48.162;11.542;2022-08-21T14:19:23;155.35;;;38.95;;
8254;SDS011;4167;48.162;11.542;2022-08-21T14:21:51;129.27;;;38.38;;
8254;SDS011;4167;48.162;11.542;2022-08-21T14:24:25;82.93;;;36.50;;
8254;SDS011;4167;48.162;11.542;2022-08-21T14:26:54;88.32;;;36.95;;
8254;SDS011;4167;48.162;11.542;2022-08-21T14:29:23;98.95;;;37.05;;
8254;SDS011;4167;48.162;11.542;2022-08-21T14:31:53;152.55;;;39.63;;
8254;SDS011;4167;48.162;11.542;2022-08-21T14:34:21;140.65;;;38.63;;
8254;SDS011;4167;48.162;11.542;2022-08-21T14:36:49;74.82;;;36.08;;
8254;SDS011;4167;48.162;11.542;2022-08-21T14:39:17;127.93;;;38.08;;
8254;SDS011;4167;48.162;11.542;2022-08-21T14:41:44;101.88;;;37.28;;